Terminal Aerodrome Forecast
Issued by NWS Tuscon, AZ

Home | Current Version | Previous Version | Text Only | Print | Product List | Glossary On
Versions: 1 2 3 4 5 6 7 8 9 10 11 12 13
824
FTUS45 KTWC 192335
TAFTUS
TAF
KTUS 192335Z 2000/2024 16007KT P6SM VCSH BKN070 OVC120
     FM200700 20009KT P6SM VCSH SCT040 OVC060
     FM201200 24009KT P6SM -RA OVC040
     FM202100 23012G20KT P6SM -RA OVC040=

USA.gov is the U.S. government's official web portal to all federal, state and local government web resources and services.